createdAt,value
2022-12-16T00:02:06.273Z,99973.00
2022-12-16T00:04:35.538Z,99977.31
2022-12-16T00:07:06.387Z,99979.84
2022-12-16T00:09:38.738Z,99971.28
2022-12-16T00:12:08.469Z,99955.81
2022-12-16T00:14:41.220Z,99948.03
2022-12-16T00:17:10.005Z,99947.22
2022-12-16T00:19:41.877Z,99942.88
2022-12-16T00:22:13.067Z,99945.47
2022-12-16T00:24:47.083Z,99942.03
2022-12-16T00:27:16.236Z,99945.50
2022-12-16T00:29:46.087Z,99948.94
2022-12-16T00:32:18.837Z,99952.34
2022-12-16T00:34:48.885Z,99956.66
2022-12-16T00:37:18.493Z,99959.25
2022-12-16T00:39:48.431Z,99961.81
2022-12-16T00:42:17.608Z,99968.69
2022-12-16T00:44:46.302Z,99969.56
2022-12-16T00:47:15.134Z,99967.84
2022-12-16T00:49:44.380Z,99974.69
2022-12-16T00:52:13.739Z,99978.16
2022-12-16T00:54:43.029Z,99972.13
2022-12-16T00:57:24.327Z,99964.38
2022-12-16T00:59:56.907Z,99972.97
2022-12-16T01:02:27.422Z,99967.81
2022-12-16T01:04:57.543Z,99958.38
2022-12-16T01:07:33.269Z,99959.22
2022-12-16T01:10:16.833Z,99953.22
2022-12-16T01:12:48.465Z,99952.38
2022-12-16T01:15:18.270Z,99951.50
2022-12-16T01:17:50.560Z,99961.81
2022-12-16T01:20:20.273Z,99958.38
2022-12-16T01:22:52.883Z,99958.38
2022-12-16T01:25:28.205Z,99960.06
2022-12-16T01:27:59.150Z,99969.53
2022-12-16T01:30:28.262Z,99961.81
2022-12-16T01:32:57.825Z,99961.81
2022-12-16T01:38:23.071Z,99960.09
2022-12-16T01:40:55.083Z,99958.38
2022-12-16T01:43:30.811Z,99963.53
2022-12-16T01:46:03.845Z,99957.53
2022-12-16T01:48:47.536Z,99961.81
2022-12-16T01:51:22.843Z,99963.53
2022-12-16T01:53:57.584Z,99960.09
2022-12-16T01:56:29.672Z,99962.69
2022-12-16T01:59:01.796Z,99968.69
2022-12-16T02:01:30.806Z,99969.56
2022-12-16T02:04:04.185Z,99968.69
2022-12-16T02:06:33.368Z,99966.12
2022-12-16T02:09:06.492Z,99954.06
2022-12-16T02:12:14.992Z,99960.94
2022-12-16T02:15:00.596Z,99964.41
2022-12-16T02:17:56.392Z,99964.41
2022-12-16T02:21:11.535Z,99956.66
2022-12-16T02:24:03.354Z,99959.22
2022-12-16T02:26:54.773Z,99960.94
2022-12-16T02:29:46.802Z,99969.53
2022-12-16T02:32:27.632Z,99975.56
2022-12-16T02:35:05.023Z,99966.94
2022-12-16T02:37:42.257Z,99966.97
2022-12-16T02:40:21.644Z,99965.25
2022-12-16T02:42:55.237Z,99967.84
2022-12-16T02:45:28.655Z,99970.41
2022-12-16T02:47:59.397Z,99970.41
2022-12-16T02:50:31.555Z,99969.56
2022-12-16T02:53:02.390Z,99957.53
2022-12-16T02:55:36.939Z,99953.22
2022-12-16T02:58:21.422Z,99955.78
2022-12-16T03:01:05.184Z,99952.34
2022-12-16T03:03:41.618Z,99952.34
2022-12-16T03:09:29.131Z,99949.78
2022-12-16T03:12:08.299Z,99951.50
2022-12-16T03:14:46.744Z,99952.38
2022-12-16T03:17:20.814Z,99953.22
2022-12-16T03:20:02.334Z,99959.22
2022-12-16T03:22:35.343Z,99953.22
2022-12-16T03:25:07.211Z,99951.50
2022-12-16T03:27:55.661Z,99962.69
2022-12-16T03:30:27.949Z,99964.41
2022-12-16T03:33:02.439Z,99965.25
2022-12-16T03:35:37.741Z,99957.53
2022-12-16T03:38:09.949Z,99963.53
2022-12-16T03:40:40.099Z,99965.25
2022-12-16T03:43:11.425Z,99969.56
2022-12-16T03:45:41.759Z,99970.41
2022-12-16T03:48:12.902Z,99973.84
2022-12-16T03:50:42.697Z,99974.72
2022-12-16T03:53:11.631Z,99981.56
2022-12-16T03:55:39.993Z,99983.31
2022-12-16T03:58:08.576Z,99979.84
2022-12-16T04:00:37.989Z,99989.31
2022-12-16T04:03:06.895Z,99981.59
2022-12-16T04:05:51.765Z,99977.28
2022-12-16T04:08:24.455Z,99974.72
2022-12-16T04:11:11.460Z,99970.41
2022-12-16T04:13:59.272Z,99973.00
2022-12-16T04:16:48.067Z,99978.13
2022-12-16T04:19:47.641Z,99967.81
2022-12-16T04:22:40.292Z,99977.28
2022-12-16T04:25:17.429Z,99981.59
2022-12-16T04:27:49.295Z,99983.31
2022-12-16T04:30:22.371Z,99985.91
2022-12-16T04:33:27.318Z,99988.47
2022-12-16T04:36:13.992Z,99997.06
2022-12-16T04:39:15.030Z,100001.38
2022-12-16T04:42:03.110Z,99997.06
2022-12-16T04:44:50.003Z,99999.66
2022-12-16T04:47:36.691Z,99997.06
2022-12-16T04:50:23.391Z,100002.25
2022-12-16T04:53:15.310Z,100004.81
2022-12-16T04:56:04.382Z,99997.06
2022-12-16T04:58:54.152Z,100003.06
2022-12-16T05:01:51.260Z,100009.97
2022-12-16T05:04:41.532Z,100014.28
2022-12-16T05:07:37.731Z,100009.97
2022-12-16T05:10:26.131Z,100015.12
2022-12-16T05:13:12.814Z,100022.00
2022-12-16T05:16:12.969Z,100025.44
2022-12-16T05:18:59.618Z,100029.72
2022-12-16T05:21:46.535Z,100030.63
2022-12-16T05:24:33.463Z,100024.56
2022-12-16T05:27:24.877Z,100028.03
2022-12-16T05:30:10.812Z,100026.31
2022-12-16T05:32:58.129Z,100020.28
2022-12-16T05:35:44.825Z,100022.88
2022-12-16T05:38:32.047Z,100025.44
2022-12-16T05:41:18.131Z,100028.03
2022-12-16T07:16:55.839Z,100174.12
2022-12-16T07:19:44.298Z,100178.44
2022-12-16T07:22:51.216Z,100185.31
2022-12-16T09:08:30.909Z,100279.38
2022-12-16T09:11:19.619Z,100274.16
2022-12-16T09:14:05.995Z,100281.91
2022-12-16T09:16:51.811Z,100286.19
2022-12-16T09:19:37.512Z,100289.59
2022-12-16T09:22:23.379Z,100292.09
2022-12-16T09:25:10.715Z,100292.09
2022-12-16T09:27:57.099Z,100289.41
2022-12-16T09:30:43.256Z,100294.50
2022-12-16T09:33:29.123Z,100294.47
2022-12-16T09:36:14.903Z,100292.56
2022-12-16T09:39:00.653Z,100301.13
2022-12-16T09:41:59.404Z,100307.12
2022-12-16T09:48:05.411Z,100303.22
2022-12-16T09:54:33.789Z,100301.31
2022-12-16T09:57:23.981Z,100319.41
2022-12-16T10:00:11.203Z,100313.12
2022-12-16T10:03:01.864Z,100313.84
2022-12-16T10:06:02.618Z,100319.66
2022-12-16T10:08:58.631Z,100320.38
2022-12-16T10:12:06.378Z,100329.81
2022-12-16T10:14:59.249Z,100327.94
2022-12-16T10:17:44.881Z,100327.19
2022-12-16T10:20:38.786Z,100329.81
2022-12-16T10:23:32.314Z,100330.66
2022-12-16T10:26:24.846Z,100324.41
2022-12-16T10:29:17.078Z,100327.72
2022-12-16T10:32:04.294Z,100337.03
2022-12-16T10:34:53.704Z,100340.50
2022-12-16T10:37:48.661Z,100338.53
2022-12-16T10:40:40.866Z,100343.59
2022-12-16T10:43:35.147Z,100344.28
2022-12-16T10:46:28.327Z,100346.13
2022-12-16T10:49:15.769Z,100340.78
2022-12-16T10:52:06.791Z,100339.69
2022-12-16T10:55:00.572Z,100338.59
2022-12-16T10:57:55.741Z,100345.63
2022-12-16T11:00:59.106Z,100342.69
2022-12-16T11:03:47.465Z,100342.31
2022-12-16T11:06:40.986Z,100349.09
2022-12-16T11:09:39.266Z,100343.72
2022-12-16T11:12:43.136Z,100341.47
2022-12-16T11:15:42.187Z,100338.59
2022-12-16T11:18:30.742Z,100335.19
2022-12-16T11:21:27.098Z,100338.63
2022-12-16T11:24:29.931Z,100344.44
2022-12-16T11:27:18.832Z,100332.50
2022-12-16T11:30:15.580Z,100342.47
2022-12-16T11:33:06.120Z,100345.59
2022-12-16T11:35:55.991Z,100349.81
2022-12-16T11:38:46.159Z,100347.00
2022-12-16T11:41:46.786Z,100347.56
2022-12-16T11:44:37.639Z,100347.22
2022-12-16T11:47:45.855Z,100348.09
2022-12-16T11:50:35.934Z,100356.72
2022-12-16T11:53:25.723Z,100354.31
2022-12-16T11:56:16.239Z,100356.56
2022-12-16T11:59:06.784Z,100360.88
2022-12-16T12:01:58.467Z,100356.63
2022-12-16T12:04:44.525Z,100358.19
2022-12-16T12:07:45.988Z,100361.25
2022-12-16T12:10:58.022Z,100362.75
2022-12-16T12:14:05.439Z,100372.00
2022-12-16T12:17:02.157Z,100376.53
2022-12-16T12:20:03.109Z,100379.97
2022-12-16T12:22:53.867Z,100380.81
2022-12-16T12:25:46.922Z,100378.84
2022-12-16T12:28:46.942Z,100377.06
2022-12-16T12:31:45.314Z,100382.44
2022-12-16T12:34:41.683Z,100391.91
2022-12-16T12:37:38.913Z,100396.16
2022-12-16T12:40:38.819Z,100392.63
2022-12-16T12:43:38.515Z,100392.91
2022-12-16T12:46:32.937Z,100398.91
2022-12-16T12:49:27.782Z,100402.41
2022-12-16T12:52:27.180Z,100401.66
2022-12-16T12:55:19.849Z,100403.16
2022-12-16T12:58:08.248Z,100404.75
2022-12-16T13:01:16.315Z,100407.31
2022-12-16T13:04:07.569Z,100404.66
2022-12-16T13:06:54.886Z,100416.06
2022-12-16T13:09:46.387Z,100412.53
2022-12-16T13:12:42.712Z,100415.12
2022-12-16T13:15:30.647Z,100420.44
2022-12-16T13:18:39.742Z,100417.94
2022-12-16T13:21:59.304Z,100421.13
2022-12-16T13:24:55.952Z,100421.91
2022-12-16T13:27:42.882Z,100427.75
2022-12-16T13:30:43.468Z,100434.59
2022-12-16T13:33:45.999Z,100438.47
2022-12-16T13:36:33.433Z,100433.81
2022-12-16T13:39:41.931Z,100447.34
2022-12-16T13:43:06.282Z,100448.25
2022-12-16T13:45:55.365Z,100453.44
2022-12-16T13:48:54.212Z,100449.25
2022-12-16T13:52:25.758Z,100452.12
2022-12-16T13:55:24.743Z,100455.97
2022-12-16T13:58:22.927Z,100461.63
2022-12-16T14:01:20.855Z,100474.13
2022-12-16T14:04:10.422Z,100480.50
2022-12-16T14:06:57.903Z,100485.97
2022-12-16T14:09:50.900Z,100487.94
2022-12-16T14:13:00.446Z,100493.38
2022-12-16T14:15:54.530Z,100491.03
2022-12-16T14:18:51.322Z,100494.59
2022-12-16T14:21:45.981Z,100494.81
2022-12-16T14:24:40.220Z,100499.06
2022-12-16T14:27:32.558Z,100518.22
2022-12-16T14:30:18.247Z,100513.91
2022-12-16T14:33:06.103Z,100523.62
2022-12-16T14:35:51.809Z,100521.03
2022-12-16T14:38:42.178Z,100524.53
2022-12-16T14:41:33.171Z,100529.91
2022-12-16T14:44:20.090Z,100539.69
2022-12-16T14:47:09.166Z,100537.19
2022-12-16T14:50:09.529Z,100539.06
2022-12-16T14:52:51.925Z,100539.19
2022-12-16T14:55:44.880Z,100550.50
2022-12-16T14:58:32.466Z,100549.72
2022-12-16T15:01:23.839Z,100545.47
2022-12-16T15:04:10.496Z,100551.53
2022-12-16T15:07:01.824Z,100550.69
2022-12-16T15:09:51.435Z,100562.87
2022-12-16T15:12:42.426Z,100558.56
2022-12-16T15:15:33.825Z,100564.78
2022-12-16T15:18:21.750Z,100565.69
2022-12-16T15:21:09.849Z,100568.44
2022-12-16T15:23:59.971Z,100563.41
2022-12-16T15:26:47.930Z,100566.84
2022-12-16T15:29:51.383Z,100571.12
2022-12-16T15:32:50.873Z,100578.03
2022-12-16T15:35:50.957Z,100579.78
2022-12-16T15:38:46.424Z,100574.56
2022-12-16T15:41:45.653Z,100585.00
2022-12-16T15:44:36.335Z,100590.22
2022-12-16T15:47:24.477Z,100587.53
2022-12-16T15:50:10.693Z,100593.66
2022-12-16T15:52:59.020Z,100598.00
2022-12-16T15:55:48.602Z,100602.34
2022-12-16T15:58:41.787Z,100611.00
2022-12-16T16:01:28.853Z,100617.97
2022-12-16T16:04:15.883Z,100619.72
2022-12-16T16:07:05.908Z,100619.69
2022-12-16T16:09:55.277Z,100629.28
2022-12-16T16:12:42.379Z,100625.78
2022-12-16T16:15:40.803Z,100618.84
2022-12-16T16:18:28.984Z,100630.13
2022-12-16T16:21:15.077Z,100633.63
2022-12-16T16:24:12.633Z,100637.91
2022-12-16T16:26:59.546Z,100644.81
2022-12-16T16:29:45.532Z,100645.66
2022-12-16T16:32:32.881Z,100645.66
2022-12-16T16:35:18.644Z,100643.03
2022-12-16T16:38:04.792Z,100646.44
2022-12-16T16:40:53.971Z,100643.81
2022-12-16T16:43:41.630Z,100652.50
2022-12-16T16:46:48.908Z,100652.59
2022-12-16T16:49:42.213Z,100649.09
2022-12-16T16:52:34.124Z,100654.31
2022-12-16T16:55:21.798Z,100657.75
2022-12-16T17:01:38.723Z,100658.56
2022-12-16T17:04:24.908Z,100664.66
2022-12-16T17:07:11.972Z,100672.41
2022-12-16T17:09:58.062Z,100671.56
2022-12-16T17:12:46.506Z,100673.28
2022-12-16T17:15:35.812Z,100672.41
2022-12-16T17:18:22.595Z,100674.09
2022-12-16T17:28:16.044Z,100681.78
2022-12-16T17:31:02.251Z,100692.16
2022-12-16T17:33:48.147Z,100688.66
2022-12-16T17:36:36.957Z,100688.59
2022-12-16T17:39:24.227Z,100695.44
2022-12-16T17:42:15.767Z,100696.31
2022-12-16T17:45:01.561Z,100698.00
2022-12-16T17:47:47.694Z,100706.75
2022-12-16T17:50:33.918Z,100706.69
2022-12-16T17:53:20.593Z,100717.97
2022-12-16T17:56:06.254Z,100719.81
2022-12-16T17:58:56.353Z,100720.53
2022-12-16T18:01:42.781Z,100723.12
2022-12-16T18:04:29.365Z,100730.88
2022-12-16T18:07:15.219Z,100729.16
2022-12-16T18:10:02.497Z,100734.31
2022-12-16T18:12:48.636Z,100720.38
2022-12-16T18:15:36.151Z,100734.22
2022-12-16T18:18:23.084Z,100727.22
2022-12-16T18:21:09.638Z,100728.03
2022-12-16T18:23:55.564Z,100729.72
2022-12-16T18:26:41.960Z,100734.88
2022-12-16T18:29:27.472Z,100743.50
2022-12-16T18:32:15.249Z,100738.28
2022-12-16T18:35:04.303Z,100746.00
2022-12-16T18:37:50.138Z,100749.44
2022-12-16T18:40:35.736Z,100748.53
2022-12-16T18:43:21.723Z,100749.34
2022-12-16T18:46:10.393Z,100755.41
2022-12-16T18:48:57.894Z,100748.47
2022-12-16T18:51:43.406Z,100765.91
2022-12-16T18:54:29.264Z,100767.72
2022-12-16T18:57:14.924Z,100776.25
2022-12-16T19:00:00.846Z,100777.97
2022-12-16T19:02:46.574Z,100779.63
2022-12-16T19:05:34.571Z,100783.03
2022-12-16T19:08:20.656Z,100784.03
2022-12-16T19:11:06.935Z,100789.31
2022-12-16T19:13:52.578Z,100785.66
2022-12-16T19:16:41.093Z,100791.75
2022-12-16T19:19:26.703Z,100797.78
2022-12-16T19:22:15.035Z,100796.94
2022-12-16T19:25:00.757Z,100791.75
2022-12-16T19:27:46.515Z,100801.25
2022-12-16T19:30:33.218Z,100801.19
2022-12-16T19:33:19.251Z,100808.12
2022-12-16T19:36:04.758Z,100806.34
2022-12-16T19:38:51.883Z,100814.13
2022-12-16T19:41:38.206Z,100812.34
2022-12-16T19:44:24.193Z,100814.91
2022-12-16T19:47:09.925Z,100814.03
2022-12-16T19:49:56.082Z,100821.81
2022-12-16T19:52:42.415Z,100824.34
2022-12-16T19:55:30.341Z,100827.81
2022-12-16T19:58:30.754Z,100834.97
2022-12-16T20:01:16.985Z,100836.78
2022-12-16T20:04:03.164Z,100838.56
2022-12-16T20:06:55.996Z,100841.91
2022-12-16T20:09:45.189Z,100848.06
2022-12-16T20:12:32.406Z,100854.19
2022-12-16T20:15:18.368Z,100854.94
2022-12-16T20:18:03.982Z,100859.41
2022-12-16T20:20:49.800Z,100862.97
2022-12-16T20:23:35.542Z,100862.12
2022-12-16T20:26:21.462Z,100869.09
2022-12-16T20:29:08.928Z,100869.81
2022-12-16T20:31:55.886Z,100869.81
2022-12-16T20:34:42.378Z,100875.03
2022-12-16T20:37:28.916Z,100878.50
2022-12-16T20:40:14.781Z,100878.50
2022-12-16T20:43:00.798Z,100892.47
2022-12-16T20:45:48.059Z,100888.13
2022-12-16T20:48:35.622Z,100889.13
2022-12-16T20:51:26.519Z,100889.94
2022-12-16T20:54:13.358Z,100906.38
2022-12-16T20:56:59.512Z,100901.06
2022-12-16T20:59:45.507Z,100907.97
2022-12-16T21:05:39.264Z,100906.34
2022-12-16T21:08:25.115Z,100903.59
2022-12-16T21:11:15.088Z,100911.37
2022-12-16T21:14:00.670Z,100913.97
2022-12-16T21:16:46.670Z,100927.91
2022-12-16T21:19:35.230Z,100928.75
2022-12-16T21:22:21.228Z,100927.00
2022-12-16T21:25:06.898Z,100934.97
2022-12-16T21:27:52.892Z,100932.34
2022-12-16T21:30:38.414Z,100921.94
2022-12-16T21:33:24.565Z,100935.88
2022-12-16T21:36:12.018Z,100934.12
2022-12-16T21:38:58.131Z,100941.00
2022-12-16T21:41:43.815Z,100934.81
2022-12-16T21:44:44.615Z,100940.91
2022-12-16T21:47:30.506Z,100944.50
2022-12-16T21:50:16.598Z,100950.69
2022-12-16T21:53:05.837Z,100953.38
2022-12-16T21:55:51.902Z,100951.63
2022-12-16T21:58:37.746Z,100960.28
2022-12-16T22:01:24.102Z,100961.12
2022-12-16T22:04:10.051Z,100976.75
2022-12-16T22:06:55.560Z,100962.78
2022-12-16T22:09:43.333Z,100978.44
2022-12-16T22:12:29.071Z,100973.25
2022-12-16T22:15:15.051Z,100984.53
2022-12-16T22:18:00.742Z,100994.16
2022-12-16T22:20:46.746Z,100995.84
2022-12-16T22:23:32.322Z,100988.81
2022-12-16T22:26:20.169Z,100999.31
2022-12-16T22:29:06.586Z,101006.28
2022-12-16T22:31:52.397Z,100999.22
2022-12-16T22:34:38.215Z,100994.88
2022-12-16T22:37:24.078Z,100995.78
2022-12-16T22:40:09.685Z,101001.84
2022-12-16T22:42:57.020Z,101004.41
2022-12-16T22:45:42.810Z,101007.03
2022-12-16T22:48:30.541Z,101002.72
2022-12-16T22:51:16.297Z,101002.84
2022-12-16T22:54:02.124Z,101001.09
2022-12-16T22:56:48.010Z,101007.19
2022-12-16T22:59:35.239Z,101011.47
2022-12-16T23:02:20.914Z,101007.03
2022-12-16T23:05:07.006Z,101013.13
2022-12-16T23:07:55.634Z,101008.72
2022-12-16T23:10:42.989Z,101015.63
2022-12-16T23:13:29.295Z,101006.87
2022-12-16T23:16:20.363Z,101022.56
2022-12-16T23:19:21.297Z,101018.22
2022-12-16T23:22:07.668Z,101026.09
2022-12-16T23:24:53.851Z,101026.94
2022-12-16T23:27:39.935Z,101025.16
2022-12-16T23:30:27.359Z,101026.91
2022-12-16T23:33:17.081Z,101021.81
2022-12-16T23:36:12.539Z,101027.94
2022-12-16T23:39:03.291Z,101031.41
2022-12-16T23:41:49.965Z,101028.78
2022-12-16T23:44:38.295Z,101030.53
2022-12-16T23:47:24.569Z,101030.53
2022-12-16T23:50:15.794Z,101032.31
2022-12-16T23:53:01.900Z,101034.00
2022-12-16T23:55:47.806Z,101041.88
2022-12-16T23:58:33.613Z,101040.06
